METAR Data
IDs: Format: Raw Decoded Include TAF

Data at: 1307 UTC 20 Oct 2021

LIRF 201250Z 26006KT 230V300 9999 FEW030 20/13 Q1026 NOSIG